Time;durP1;ratioP1;P1;durP2;ratioP2;P2;SDS_P1;SDS_P2;PMS_P1;PMS_P2;Temp;Humidity;BMP_temperature;BMP_pressure;BME280_temperature;BME280_humidity;BME280_pressure;Samples;Min_cycle;Max_cycle;Signal;HPM_P1;HPM_P2
2022/03/13 00:00:40;;;;;;;36.17;19.65;;;2.60;99.90;;;;;;5053510;28;20049;-68
2022/03/13 00:03:13;;;;;;;34.63;19.05;;;2.50;99.90;;;;;;5011855;28;20033;-68
2022/03/13 00:05:40;;;;;;;33.55;19.23;;;2.50;99.90;;;;;;5047449;28;20064;-69
2022/03/13 00:08:31;;;;;;;32.22;18.88;;;2.50;99.90;;;;;;5053742;28;20032;-69
2022/03/13 00:11:17;;;;;;;36.58;18.25;;;2.50;99.90;;;;;;5037481;28;20025;-70
2022/03/13 00:13:51;;;;;;;34.83;18.55;;;2.50;99.90;;;;;;5054442;28;20421;-69
2022/03/13 00:16:18;;;;;;;30.75;17.33;;;2.40;99.90;;;;;;5053665;28;20355;-69
2022/03/13 00:18:47;;;;;;;36.40;17.80;;;2.40;99.90;;;;;;5054181;28;20138;-69
2022/03/13 00:21:17;;;;;;;32.53;17.70;;;2.30;99.90;;;;;;5053038;28;20459;-69
2022/03/13 00:23:44;;;;;;;32.47;16.95;;;2.30;99.90;;;;;;5053931;28;20025;-69
2022/03/13 00:26:11;;;;;;;31.38;16.88;;;2.30;99.90;;;;;;5052876;28;20029;-69
2022/03/13 00:28:37;;;;;;;35.60;19.38;;;2.30;99.90;;;;;;5037212;28;20040;-69
2022/03/13 00:31:04;;;;;;;36.10;19.38;;;2.30;99.90;;;;;;5053522;28;20048;-68
2022/03/13 00:33:31;;;;;;;36.08;19.77;;;2.20;99.90;;;;;;5053538;28;20390;-69
2022/03/13 00:35:56;;;;;;;30.40;17.15;;;2.20;99.90;;;;;;5054142;28;20025;-69
2022/03/13 00:38:25;;;;;;;33.78;17.75;;;2.10;99.90;;;;;;5052835;28;20516;-69
2022/03/13 00:40:55;;;;;;;31.25;18.63;;;2.10;99.90;;;;;;5033943;28;20041;-69
2022/03/13 00:43:23;;;;;;;31.65;17.23;;;2.10;99.90;;;;;;5033321;28;20336;-69
2022/03/13 00:45:49;;;;;;;30.02;16.45;;;2.00;99.90;;;;;;5033959;28;20403;-70
2022/03/13 00:48:16;;;;;;;32.80;17.92;;;2.00;99.90;;;;;;5033011;28;20026;-69
2022/03/13 00:50:42;;;;;;;29.48;17.13;;;2.00;99.90;;;;;;5052912;28;20151;-69
2022/03/13 00:53:08;;;;;;;31.05;17.40;;;1.90;99.90;;;;;;5052908;28;20083;-69
2022/03/13 00:55:34;;;;;;;33.25;17.08;;;1.80;99.90;;;;;;5053465;28;20033;-69
2022/03/13 00:58:00;;;;;;;30.67;15.77;;;1.70;99.90;;;;;;5053419;28;20112;-68
2022/03/13 01:00:26;;;;;;;31.13;15.70;;;1.70;99.90;;;;;;5053323;28;20052;-69
2022/03/13 01:02:52;;;;;;;27.25;14.15;;;1.70;99.90;;;;;;5054279;28;20104;-69
2022/03/13 01:05:23;;;;;;;27.15;15.40;;;1.70;99.90;;;;;;5053151;28;20040;-70
2022/03/13 01:07:53;;;;;;;30.83;16.55;;;1.60;99.90;;;;;;5053636;28;20025;-70
2022/03/13 01:10:19;;;;;;;32.55;16.52;;;1.50;99.90;;;;;;5051880;28;20042;-69
2022/03/13 01:12:47;;;;;;;30.30;16.08;;;1.50;99.90;;;;;;5053228;28;20124;-69
2022/03/13 01:15:13;;;;;;;30.63;16.35;;;1.40;99.90;;;;;;5052634;28;20087;-68
2022/03/13 01:17:39;;;;;;;27.67;13.60;;;1.40;99.90;;;;;;5053149;28;20029;-69
2022/03/13 01:20:13;;;;;;;24.35;14.10;;;1.40;99.90;;;;;;5052415;28;20478;-68
2022/03/13 01:22:38;;;;;;;27.33;14.30;;;1.40;99.90;;;;;;5033208;28;20045;-70
2022/03/13 01:25:04;;;;;;;24.95;13.75;;;1.40;99.90;;;;;;5045176;28;20029;-68
2022/03/13 01:27:31;;;;;;;25.35;14.30;;;1.30;99.90;;;;;;5053183;28;20032;-69
2022/03/13 01:29:57;;;;;;;26.20;14.13;;;1.30;99.90;;;;;;5052614;28;20482;-69
2022/03/13 01:32:23;;;;;;;28.83;15.20;;;1.30;99.90;;;;;;5052245;28;20642;-70
2022/03/13 01:34:51;;;;;;;27.90;14.43;;;1.20;99.90;;;;;;5053254;28;20025;-70
2022/03/13 01:37:30;;;;;;;26.48;14.10;;;1.20;99.90;;;;;;5052183;28;20036;-69
2022/03/13 01:39:57;;;;;;;29.10;15.23;;;1.10;99.90;;;;;;5052361;28;20120;-69
2022/03/13 01:42:24;;;;;;;28.05;15.15;;;1.10;99.90;;;;;;5051611;28;20562;-69
2022/03/13 01:44:49;;;;;;;26.58;15.20;;;1.10;99.90;;;;;;5052401;28;20109;-70
2022/03/13 01:47:15;;;;;;;27.42;14.88;;;1.10;99.90;;;;;;5051303;28;20103;-70
2022/03/13 01:49:42;;;;;;;27.08;15.65;;;1.00;99.90;;;;;;5052547;28;20033;-71
2022/03/13 01:52:08;;;;;;;30.83;16.27;;;1.00;99.90;;;;;;5051922;28;20107;-68
2022/03/13 01:54:34;;;;;;;30.35;15.35;;;1.00;99.90;;;;;;5052383;28;20040;-69
2022/03/13 01:57:00;;;;;;;28.05;14.95;;;1.00;99.90;;;;;;5051426;28;20029;-69
2022/03/13 01:59:28;;;;;;;28.45;14.57;;;1.00;99.90;;;;;;5051460;28;20049;-69
2022/03/13 02:01:55;;;;;;;27.95;14.65;;;1.00;99.90;;;;;;5053078;28;20044;-68
2022/03/13 02:04:30;;;;;;;25.58;13.40;;;1.00;99.90;;;;;;5052495;28;20029;-70
2022/03/13 02:06:58;;;;;;;26.10;13.82;;;1.00;99.90;;;;;;5052640;28;20032;-70
2022/03/13 02:09:27;;;;;;;24.42;12.98;;;1.00;99.90;;;;;;5051203;28;20036;-70
2022/03/13 02:11:54;;;;;;;25.63;13.43;;;1.00;99.90;;;;;;5052028;28;20036;-69
2022/03/13 02:14:22;;;;;;;24.40;12.90;;;1.00;99.90;;;;;;5051502;28;20075;-70
2022/03/13 02:16:49;;;;;;;25.20;12.43;;;1.00;99.90;;;;;;5052275;28;20374;-69
2022/03/13 02:19:17;;;;;;;22.90;12.65;;;0.90;99.90;;;;;;5051381;28;20092;-69
2022/03/13 02:21:46;;;;;;;26.85;13.27;;;0.90;99.90;;;;;;5052068;28;20025;-69
2022/03/13 02:24:14;;;;;;;26.10;13.93;;;0.90;99.90;;;;;;5051265;28;20031;-67
2022/03/13 02:26:42;;;;;;;25.13;13.38;;;0.80;99.90;;;;;;5051796;28;20029;-68
2022/03/13 02:29:12;;;;;;;27.55;14.52;;;0.80;99.90;;;;;;5050810;28;20430;-68
2022/03/13 02:31:38;;;;;;;28.48;13.43;;;0.80;99.90;;;;;;5052010;28;20063;-69
2022/03/13 02:34:09;;;;;;;25.13;12.30;;;0.80;99.90;;;;;;5051711;28;20037;-68
2022/03/13 02:36:38;;;;;;;20.50;11.45;;;0.90;99.90;;;;;;5051958;28;20048;-69
2022/03/13 02:39:05;;;;;;;26.80;12.98;;;0.90;99.90;;;;;;5051054;28;20025;-68
2022/03/13 02:41:32;;;;;;;18.77;10.70;;;0.90;99.90;;;;;;5051898;28;20098;-68
2022/03/13 02:43:58;;;;;;;21.17;10.98;;;0.90;99.90;;;;;;5051384;28;20029;-69
2022/03/13 02:46:52;;;;;;;20.73;11.23;;;0.90;99.90;;;;;;5051552;28;20127;-69
2022/03/13 02:49:21;;;;;;;21.52;12.07;;;0.90;99.90;;;;;;5050811;28;20119;-68
2022/03/13 02:51:49;;;;;;;21.27;11.43;;;0.80;99.90;;;;;;5051965;28;20115;-69
2022/03/13 02:54:15;;;;;;;19.95;11.32;;;0.70;99.90;;;;;;5050755;28;20036;-68
2022/03/13 02:56:42;;;;;;;23.33;11.15;;;0.60;99.90;;;;;;5051602;28;20029;-69
2022/03/13 02:59:09;;;;;;;20.65;10.63;;;0.60;99.90;;;;;;5050289;28;20076;-67
2022/03/13 03:01:37;;;;;;;20.73;10.75;;;0.50;99.90;;;;;;5051742;28;20107;-69
2022/03/13 03:04:03;;;;;;;22.58;11.65;;;0.50;99.90;;;;;;5051617;28;20028;-69
2022/03/13 03:06:30;;;;;;;21.88;11.38;;;0.50;99.90;;;;;;5051132;28;20111;-69
2022/03/13 03:08:56;;;;;;;23.35;10.57;;;0.50;99.90;;;;;;5051568;28;20489;-70
2022/03/13 03:11:23;;;;;;;22.90;11.30;;;0.40;99.90;;;;;;5050614;28;20033;-69
2022/03/13 03:13:48;;;;;;;21.40;11.98;;;0.40;99.90;;;;;;5051700;28;20052;-69
2022/03/13 03:16:14;;;;;;;23.15;11.48;;;0.40;99.90;;;;;;5050691;28;20068;-70
2022/03/13 03:18:40;;;;;;;20.45;10.80;;;0.40;99.90;;;;;;5051066;28;20025;-70
2022/03/13 03:21:06;;;;;;;25.40;11.10;;;0.40;99.90;;;;;;5051176;28;20040;-68
2022/03/13 03:23:32;;;;;;;20.05;11.57;;;0.30;99.90;;;;;;5049840;28;20025;-70
2022/03/13 03:25:57;;;;;;;21.27;10.38;;;0.30;99.90;;;;;;5051425;28;20642;-69
2022/03/13 03:28:23;;;;;;;20.85;11.40;;;0.30;99.90;;;;;;5050421;28;20040;-69
2022/03/13 03:30:49;;;;;;;25.30;11.82;;;0.20;99.90;;;;;;5051057;28;20484;-70
2022/03/13 03:33:15;;;;;;;22.42;10.85;;;0.20;99.90;;;;;;5050869;28;20053;-69
2022/03/13 03:35:41;;;;;;;20.77;10.90;;;0.20;99.90;;;;;;5051588;28;20108;-69
2022/03/13 03:38:07;;;;;;;22.38;11.77;;;0.20;99.90;;;;;;5049459;28;20159;-68
2022/03/13 03:40:34;;;;;;;24.13;12.52;;;0.20;99.90;;;;;;5050600;28;20032;-69
2022/03/13 03:43:02;;;;;;;25.23;13.13;;;0.20;99.90;;;;;;5051245;28;20450;-70
2022/03/13 03:45:29;;;;;;;24.15;13.00;;;0.10;99.90;;;;;;5050253;28;20039;-70
2022/03/13 03:47:55;;;;;;;30.88;13.50;;;0.10;99.90;;;;;;5051051;28;20033;-69
2022/03/13 03:50:21;;;;;;;26.08;13.60;;;0.10;99.90;;;;;;5050183;28;20044;-68
2022/03/13 03:52:46;;;;;;;25.85;13.48;;;0.10;99.90;;;;;;5051088;28;20033;-70
2022/03/13 03:55:12;;;;;;;24.60;12.13;;;0.20;99.90;;;;;;5050341;28;20091;-69
2022/03/13 03:57:38;;;;;;;26.23;14.70;;;0.20;99.90;;;;;;5051049;28;20459;-68
2022/03/13 04:00:06;;;;;;;31.85;13.95;;;0.20;99.90;;;;;;5049196;28;20414;-69
2022/03/13 04:02:33;;;;;;;28.95;14.80;;;0.20;99.90;;;;;;5050664;28;20108;-68
2022/03/13 04:04:58;;;;;;;24.00;12.82;;;0.30;99.90;;;;;;5051123;28;20036;-69
2022/03/13 04:07:24;;;;;;;25.77;14.05;;;0.20;99.90;;;;;;5049985;28;20021;-68
2022/03/13 04:09:50;;;;;;;25.92;13.10;;;0.20;99.90;;;;;;5053016;28;20044;-68
2022/03/13 04:12:16;;;;;;;24.95;13.55;;;0.20;99.90;;;;;;5054091;28;20052;-69
2022/03/13 04:14:42;;;;;;;28.55;14.10;;;0.10;99.90;;;;;;5054619;28;20029;-68
2022/03/13 04:17:07;;;;;;;27.33;14.20;;;0.10;99.90;;;;;;5053854;28;20167;-67
2022/03/13 04:19:33;;;;;;;30.60;15.50;;;0.10;99.90;;;;;;5053575;28;20033;-68
2022/03/13 04:21:59;;;;;;;27.35;14.38;;;0.00;99.90;;;;;;5054344;28;20531;-67
2022/03/13 04:24:25;;;;;;;29.90;14.32;;;0.00;99.90;;;;;;5053538;28;20025;-67
2022/03/13 04:26:51;;;;;;;29.25;14.07;;;0.00;99.90;;;;;;5054505;28;20017;-70
2022/03/13 04:29:18;;;;;;;29.10;14.27;;;0.00;99.90;;;;;;5053340;28;20074;-70
2022/03/13 04:31:44;;;;;;;27.25;14.73;;;-0.10;99.90;;;;;;5054096;28;20033;-69
2022/03/13 04:34:10;;;;;;;29.30;16.00;;;0.00;99.90;;;;;;5052354;28;20031;-68
2022/03/13 04:36:37;;;;;;;32.40;15.23;;;0.00;99.90;;;;;;5054242;28;20466;-69
2022/03/13 04:39:07;;;;;;;29.02;14.75;;;0.00;99.90;;;;;;5054060;28;20079;-70
2022/03/13 04:41:33;;;;;;;30.87;15.47;;;0.00;99.90;;;;;;5053679;28;20025;-69
2022/03/13 04:43:59;;;;;;;30.13;14.88;;;0.00;99.90;;;;;;5053944;28;20634;-69
2022/03/13 04:46:25;;;;;;;33.08;14.48;;;0.00;99.90;;;;;;5052872;28;20112;-70
2022/03/13 04:48:52;;;;;;;27.05;13.88;;;0.10;99.90;;;;;;5053877;28;20118;-70
2022/03/13 04:51:18;;;;;;;29.48;14.93;;;0.00;99.90;;;;;;5053278;28;20039;-70
2022/03/13 04:53:44;;;;;;;28.55;14.80;;;0.00;99.90;;;;;;5054113;28;20033;-70
2022/03/13 04:56:10;;;;;;;25.77;14.30;;;-0.10;99.90;;;;;;5051926;28;20078;-68
2022/03/13 04:58:36;;;;;;;30.88;13.98;;;-0.10;99.90;;;;;;5053632;28;20421;-70
2022/03/13 05:01:03;;;;;;;28.73;15.20;;;-0.20;99.90;;;;;;5053976;28;20115;-70
2022/03/13 05:03:32;;;;;;;30.02;15.35;;;-0.20;99.90;;;;;;5052623;28;20470;-70
2022/03/13 05:05:57;;;;;;;30.65;14.80;;;-0.30;99.90;;;;;;5052435;28;20029;-70
2022/03/13 05:08:23;;;;;;;29.40;15.45;;;-0.30;99.90;;;;;;5052714;28;20025;-70
2022/03/13 05:10:50;;;;;;;29.92;16.27;;;-0.30;99.90;;;;;;5053607;28;20040;-70
2022/03/13 05:13:16;;;;;;;28.38;15.60;;;-0.20;99.90;;;;;;5052908;28;20079;-69
2022/03/13 05:15:45;;;;;;;30.38;15.77;;;-0.20;99.90;;;;;;5053416;28;20020;-69
2022/03/13 05:18:12;;;;;;;30.15;15.00;;;-0.10;99.90;;;;;;5052605;28;20052;-68
2022/03/13 05:20:39;;;;;;;31.80;15.80;;;-0.10;99.90;;;;;;5053206;28;20033;-68
2022/03/13 05:23:10;;;;;;;29.80;16.27;;;-0.10;99.90;;;;;;5053195;28;20425;-69
2022/03/13 05:25:37;;;;;;;26.65;14.32;;;-0.10;99.90;;;;;;5052703;28;20036;-68
2022/03/13 05:28:04;;;;;;;30.65;15.18;;;-0.20;99.90;;;;;;5053243;28;20025;-68
2022/03/13 05:30:29;;;;;;;28.30;15.38;;;-0.30;99.90;;;;;;5052371;28;20761;-69
2022/03/13 05:32:55;;;;;;;31.52;16.52;;;-0.30;99.90;;;;;;5053041;28;20056;-68
2022/03/13 05:35:21;;;;;;;30.75;15.85;;;-0.40;99.90;;;;;;5052314;28;20374;-68
2022/03/13 05:37:47;;;;;;;37.25;18.17;;;-0.40;99.90;;;;;;5053110;28;20106;-68
2022/03/13 05:40:15;;;;;;;33.67;17.40;;;-0.40;99.90;;;;;;5052309;28;20075;-67
2022/03/13 05:42:44;;;;;;;33.28;16.73;;;-0.30;99.90;;;;;;5052770;28;20037;-68
2022/03/13 05:45:11;;;;;;;29.42;15.77;;;-0.30;99.90;;;;;;5052271;28;20040;-67
2022/03/13 05:48:07;;;;;;;28.08;15.57;;;-0.30;99.90;;;;;;5052200;28;20036;-68
2022/03/13 05:50:33;;;;;;;38.40;18.23;;;-0.30;99.90;;;;;;5039214;28;20049;-70
2022/03/13 05:52:59;;;;;;;32.55;17.35;;;-0.20;99.90;;;;;;5052930;28;20036;-68
2022/03/13 05:55:26;;;;;;;29.10;16.17;;;-0.20;99.90;;;;;;5047830;28;20076;-68
2022/03/13 05:57:56;;;;;;;28.58;15.23;;;-0.10;99.90;;;;;;5051211;28;20021;-68
2022/03/13 06:00:25;;;;;;;;;;;-0.10;99.90;;;;;;5050914;28;20041;-68
2022/03/13 06:02:51;;;;;;;31.83;16.10;;;-0.10;99.90;;;;;;5050893;28;19908;-68
2022/03/13 06:05:18;;;;;;;33.83;17.05;;;-0.10;99.90;;;;;;5050660;28;20032;-68
2022/03/13 06:07:45;;;;;;;30.88;16.40;;;-0.10;99.90;;;;;;5051056;28;20044;-69
2022/03/13 06:10:11;;;;;;;31.80;16.98;;;-0.10;99.90;;;;;;5050671;28;20111;-68
2022/03/13 06:12:37;;;;;;;32.38;17.38;;;-0.10;99.90;;;;;;5050952;28;20025;-72
2022/03/13 06:15:05;;;;;;;32.58;16.52;;;0.00;99.90;;;;;;5051351;28;20078;-70
2022/03/13 06:17:31;;;;;;;32.75;17.08;;;0.10;99.90;;;;;;5050546;28;20036;-71
2022/03/13 06:19:57;;;;;;;31.77;17.05;;;0.10;99.90;;;;;;5051312;28;20478;-69
2022/03/13 06:22:24;;;;;;;35.38;17.63;;;0.20;99.90;;;;;;5051473;28;20047;-70
2022/03/13 06:24:50;;;;;;;29.30;15.50;;;0.20;99.90;;;;;;5050539;28;20106;-70
2022/03/13 06:27:18;;;;;;;30.30;16.50;;;0.20;99.90;;;;;;5048992;28;20103;-69
2022/03/13 06:29:44;;;;;;;34.67;18.35;;;0.20;99.90;;;;;;5050477;28;20112;-69
2022/03/13 06:32:09;;;;;;;30.85;16.65;;;0.30;99.90;;;;;;5050182;28;20489;-68
2022/03/13 06:34:36;;;;;;;30.10;16.38;;;0.40;99.90;;;;;;5050046;28;20060;-71
2022/03/13 06:37:03;;;;;;;32.58;16.63;;;0.50;99.90;;;;;;5050219;28;20025;-70
2022/03/13 06:39:29;;;;;;;31.35;16.45;;;0.60;99.90;;;;;;5049883;28;20039;-70
2022/03/13 06:41:55;;;;;;;29.30;16.05;;;0.70;99.90;;;;;;5051201;28;20029;-70
2022/03/13 06:44:20;;;;;;;33.53;16.02;;;0.80;99.90;;;;;;5050727;28;20032;-68
2022/03/13 06:46:46;;;;;;;31.35;16.45;;;1.00;99.90;;;;;;5051833;28;20029;-69
2022/03/13 06:49:12;;;;;;;36.08;17.55;;;1.10;99.90;;;;;;5050851;28;20484;-68
2022/03/13 06:51:38;;;;;;;31.15;16.38;;;1.30;99.90;;;;;;5051791;28;20055;-70
2022/03/13 06:54:06;;;;;;;36.33;17.52;;;1.40;99.90;;;;;;5051875;28;20071;-69
2022/03/13 06:56:32;;;;;;;35.20;19.15;;;1.60;99.90;;;;;;5051143;28;20261;-71
2022/03/13 06:59:03;;;;;;;35.00;17.48;;;1.60;99.90;;;;;;5052474;28;20078;-69
2022/03/13 07:01:29;;;;;;;36.17;19.17;;;1.70;99.90;;;;;;5050838;28;20037;-71
2022/03/13 07:03:55;;;;;;;35.63;18.75;;;1.80;99.90;;;;;;5051466;28;20413;-69
2022/03/13 07:06:20;;;;;;;34.03;17.80;;;1.90;99.90;;;;;;5050425;28;20033;-69
2022/03/13 07:08:46;;;;;;;32.60;17.75;;;2.00;99.90;;;;;;5051308;28;20033;-70
2022/03/13 07:11:11;;;;;;;32.50;18.48;;;2.10;99.90;;;;;;5050860;28;20025;-69
2022/03/13 07:13:40;;;;;;;33.40;17.92;;;2.20;99.90;;;;;;5050844;28;20029;-73
2022/03/13 07:16:07;;;;;;;35.38;18.17;;;2.30;99.90;;;;;;5051187;28;20091;-74
2022/03/13 07:18:32;;;;;;;33.17;19.05;;;2.40;99.90;;;;;;5050675;28;20056;-72
2022/03/13 07:20:58;;;;;;;30.58;17.58;;;2.60;99.90;;;;;;5051451;28;20083;-76
2022/03/13 07:23:24;;;;;;;28.10;17.45;;;2.80;99.90;;;;;;5050580;28;20109;-72
2022/03/13 07:25:50;;;;;;;32.55;17.77;;;3.00;99.90;;;;;;5050299;28;20025;-74
2022/03/13 07:28:17;;;;;;;27.42;16.45;;;3.10;99.90;;;;;;5050235;28;20021;-72
2022/03/13 07:30:42;;;;;;;27.73;15.75;;;3.20;99.40;;;;;;5033615;28;20394;-73
2022/03/13 07:33:08;;;;;;;27.95;16.92;;;3.40;98.90;;;;;;5047289;28;20035;-72
2022/03/13 07:35:34;;;;;;;29.02;16.60;;;3.50;98.00;;;;;;5050167;28;20040;-72
2022/03/13 07:37:59;;;;;;;28.08;15.05;;;3.60;97.10;;;;;;5047599;28;20752;-75
2022/03/13 07:40:25;;;;;;;28.73;15.68;;;3.60;96.50;;;;;;5072882;28;20102;-69
2022/03/13 07:42:51;;;;;;;32.25;16.50;;;3.70;95.40;;;;;;5071319;28;20355;-69
2022/03/13 07:45:17;;;;;;;23.08;14.32;;;4.00;93.70;;;;;;5073846;28;20028;-67
2022/03/13 07:47:42;;;;;;;29.38;15.80;;;4.10;92.80;;;;;;5074605;28;20052;-72
2022/03/13 07:50:09;;;;;;;25.77;15.40;;;4.30;92.10;;;;;;5051951;28;20065;-77
2022/03/13 07:52:34;;;;;;;29.30;16.13;;;4.30;91.50;;;;;;5039899;28;20028;-69
2022/03/13 07:55:00;;;;;;;26.58;15.48;;;4.40;91.10;;;;;;5055847;28;20032;-69
2022/03/13 07:57:27;;;;;;;28.77;16.13;;;4.60;90.50;;;;;;5054423;28;20407;-66
2022/03/13 07:59:53;;;;;;;29.17;16.10;;;4.70;89.80;;;;;;5053167;28;20410;-67
2022/03/13 08:02:19;;;;;;;24.23;14.07;;;4.80;89.60;;;;;;5053862;28;20029;-68
2022/03/13 08:04:44;;;;;;;26.38;15.30;;;4.90;90.00;;;;;;5054424;28;20025;-68
2022/03/13 08:07:10;;;;;;;27.13;14.30;;;5.00;89.10;;;;;;5053744;28;20037;-67
2022/03/13 08:09:36;;;;;;;24.55;14.77;;;5.10;86.90;;;;;;5053375;28;20088;-67
2022/03/13 08:12:03;;;;;;;25.13;14.90;;;5.20;86.10;;;;;;5054552;28;20056;-69
2022/03/13 08:14:29;;;;;;;25.65;14.90;;;5.30;85.10;;;;;;5056344;28;20032;-66
2022/03/13 08:16:55;;;;;;;32.15;15.60;;;5.40;84.90;;;;;;5054602;28;20036;-67
2022/03/13 08:19:20;;;;;;;21.90;14.38;;;5.60;85.20;;;;;;5053733;28;20033;-66
2022/03/13 08:21:46;;;;;;;28.40;15.90;;;5.70;83.50;;;;;;5053868;28;20029;-67
2022/03/13 08:24:14;;;;;;;26.83;15.98;;;5.90;82.20;;;;;;5054381;28;20025;-68
2022/03/13 08:26:40;;;;;;;28.98;16.77;;;6.00;81.00;;;;;;5053765;28;20485;-67
2022/03/13 08:29:11;;;;;;;26.50;15.60;;;6.10;80.10;;;;;;5054078;28;20027;-67
2022/03/13 08:31:38;;;;;;;27.85;15.32;;;6.30;78.60;;;;;;5053182;28;20029;-69
2022/03/13 08:34:09;;;;;;;26.13;16.35;;;6.40;78.10;;;;;;5054048;28;20025;-70
2022/03/13 08:36:40;;;;;;;25.77;15.15;;;6.60;77.00;;;;;;5053428;28;20019;-69
2022/03/13 08:39:06;;;;;;;30.40;15.48;;;6.70;76.10;;;;;;5054197;28;20029;-70
2022/03/13 08:41:33;;;;;;;23.73;13.88;;;7.00;73.90;;;;;;5053081;28;20090;-67
2022/03/13 08:43:58;;;;;;;24.88;14.02;;;7.10;72.80;;;;;;5053889;28;20052;-67
2022/03/13 08:46:24;;;;;;;25.75;14.82;;;7.20;71.00;;;;;;5053083;28;20029;-67
2022/03/13 08:48:50;;;;;;;27.17;14.38;;;7.30;70.60;;;;;;5052940;28;20439;-67
2022/03/13 08:51:18;;;;;;;25.30;15.63;;;7.40;69.20;;;;;;5050556;28;20036;-67
2022/03/13 08:53:44;;;;;;;26.30;15.18;;;7.50;68.90;;;;;;5053461;28;20017;-67
2022/03/13 08:56:13;;;;;;;28.02;15.02;;;7.60;69.10;;;;;;5053461;28;20083;-68
2022/03/13 08:58:40;;;;;;;25.38;15.40;;;7.60;68.40;;;;;;5052609;28;20072;-67
2022/03/13 09:01:05;;;;;;;21.80;13.85;;;7.70;68.20;;;;;;5053689;28;20375;-67
2022/03/13 09:03:32;;;;;;;27.08;16.13;;;7.70;68.30;;;;;;5052651;28;20055;-67
2022/03/13 09:05:57;;;;;;;24.42;14.35;;;7.70;68.20;;;;;;5053379;28;20486;-67
2022/03/13 09:08:23;;;;;;;25.95;14.40;;;7.80;68.10;;;;;;5052439;28;20029;-67
2022/03/13 09:10:50;;;;;;;29.15;16.90;;;8.00;83.20;;;;;;5053344;28;20087;-67
2022/03/13 09:13:16;;;;;;;24.60;16.08;;;;;;;;;;5053222;28;20032;-67
2022/03/13 09:15:42;;;;;;;25.15;16.08;;;8.20;66.70;;;;;;5052712;28;20028;-67
2022/03/13 09:18:08;;;;;;;28.45;16.67;;;8.30;66.90;;;;;;5053371;28;20024;-67
2022/03/13 09:20:33;;;;;;;29.50;16.13;;;8.40;66.70;;;;;;5052410;28;20029;-68
2022/03/13 09:22:59;;;;;;;30.65;16.55;;;8.50;67.30;;;;;;5053009;28;20447;-68
2022/03/13 09:25:24;;;;;;;23.75;14.43;;;8.70;66.40;;;;;;5052409;28;20029;-67
2022/03/13 09:27:52;;;;;;;22.70;14.73;;;8.80;66.40;;;;;;5053005;28;20021;-68
2022/03/13 09:30:18;;;;;;;27.88;16.00;;;8.80;67.10;;;;;;5052644;28;20033;-67
2022/03/13 09:32:44;;;;;;;31.15;17.38;;;9.00;72.20;;;;;;5052740;28;20091;-68
2022/03/13 09:35:11;;;;;;;27.95;16.13;;;9.10;66.00;;;;;;5053178;28;20374;-68
2022/03/13 09:37:39;;;;;;;28.38;17.35;;;9.20;65.20;;;;;;5052257;28;20116;-68
2022/03/13 09:40:05;;;;;;;26.75;17.33;;;9.30;65.00;;;;;;5052565;28;20067;-68
2022/03/13 09:42:31;;;;;;;26.67;16.80;;;9.50;65.00;;;;;;5052316;28;20033;-67
2022/03/13 09:44:59;;;;;;;26.52;16.98;;;9.60;64.30;;;;;;5052570;28;20478;-67
2022/03/13 09:47:26;;;;;;;25.35;16.55;;;9.70;64.40;;;;;;5051979;28;20037;-68
2022/03/13 09:49:52;;;;;;;27.73;17.70;;;9.80;64.10;;;;;;5052241;28;20025;-68
2022/03/13 09:52:18;;;;;;;26.40;17.05;;;9.90;63.40;;;;;;5052341;28;20028;-67
2022/03/13 09:54:43;;;;;;;31.00;17.65;;;10.00;63.70;;;;;;5052152;28;20025;-67
2022/03/13 09:57:09;;;;;;;26.15;16.70;;;10.10;64.20;;;;;;5052634;28;20162;-67
2022/03/13 09:59:36;;;;;;;29.65;18.30;;;10.20;63.30;;;;;;5050136;28;20417;-67
2022/03/13 10:02:06;;;;;;;27.60;18.27;;;10.30;63.50;;;;;;5052356;28;20029;-68
2022/03/13 10:04:32;;;;;;;27.55;17.40;;;10.40;64.20;;;;;;5051625;28;20159;-67
2022/03/13 10:07:12;;;;;;;30.15;17.45;;;10.60;63.30;;;;;;5051670;28;20478;-68
2022/03/13 10:09:40;;;;;;;27.73;18.08;;;10.80;62.60;;;;;;5051225;28;20099;-67
2022/03/13 10:12:14;;;;;;;26.13;16.70;;;11.00;62.00;;;;;;5052312;28;20041;-68
2022/03/13 10:14:59;;;;;;;31.48;18.15;;;11.20;61.60;;;;;;5051446;28;20024;-67
2022/03/13 10:17:26;;;;;;;28.45;18.70;;;11.30;61.30;;;;;;5051361;28;20378;-68
2022/03/13 10:19:52;;;;;;;31.45;21.02;;;11.50;60.70;;;;;;5052178;28;20039;-67
2022/03/13 10:22:18;;;;;;;28.42;17.73;;;11.60;60.30;;;;;;5052148;28;20036;-67
2022/03/13 10:24:46;;;;;;;28.92;17.80;;;11.70;61.00;;;;;;5051084;28;20029;-67
2022/03/13 10:27:16;;;;;;;27.98;18.17;;;11.80;61.40;;;;;;5052004;28;20025;-67
2022/03/13 10:29:44;;;;;;;30.13;19.08;;;12.00;60.10;;;;;;5051025;28;20845;-67
2022/03/13 10:32:10;;;;;;;31.73;18.70;;;12.20;59.90;;;;;;5052030;28;20028;-68
2022/03/13 10:34:36;;;;;;;27.42;17.88;;;12.30;58.30;;;;;;5051192;28;20029;-68
2022/03/13 10:37:03;;;;;;;29.27;18.88;;;12.40;58.50;;;;;;5051958;28;20031;-67
2022/03/13 10:39:29;;;;;;;31.35;19.17;;;12.60;58.60;;;;;;5050991;28;20037;-66
2022/03/13 10:42:03;;;;;;;28.48;18.40;;;12.60;57.20;;;;;;5051893;28;20103;-68
2022/03/13 10:44:34;;;;;;;30.67;18.63;;;12.70;57.60;;;;;;5050878;28;20037;-67
2022/03/13 10:47:08;;;;;;;29.75;19.52;;;12.80;56.70;;;;;;5051820;28;20029;-67
2022/03/13 10:49:42;;;;;;;27.20;18.67;;;13.00;60.10;;;;;;5050943;28;20028;-67
2022/03/13 10:52:28;;;;;;;28.30;18.88;;;13.00;69.10;;;;;;5051537;28;20108;-67
2022/03/13 10:54:55;;;;;;;29.08;18.95;;;13.10;55.80;;;;;;5051108;28;20035;-67
2022/03/13 10:57:22;;;;;;;28.80;19.20;;;13.20;55.20;;;;;;5051413;28;20029;-66
2022/03/13 11:00:09;;;;;;;31.80;19.63;;;13.30;55.90;;;;;;5050927;28;20064;-67
2022/03/13 11:02:35;;;;;;;30.92;19.67;;;13.30;54.40;;;;;;5050913;28;20078;-67
2022/03/13 11:05:00;;;;;;;33.92;20.95;;;13.30;53.70;;;;;;5051582;28;20405;-67
2022/03/13 11:07:29;;;;;;;33.20;20.05;;;13.40;54.20;;;;;;5050945;28;20124;-67
2022/03/13 11:09:56;;;;;;;35.30;20.80;;;13.60;52.20;;;;;;5031705;28;20116;-67
2022/03/13 11:12:23;;;;;;;33.95;21.17;;;13.60;53.10;;;;;;5031245;28;20398;-67
2022/03/13 11:14:51;;;;;;;35.17;21.25;;;13.70;53.00;;;;;;5031357;28;20060;-72
2022/03/13 11:17:19;;;;;;;37.97;21.60;;;13.80;53.30;;;;;;5063963;28;20021;-68
2022/03/13 11:19:51;;;;;;;35.08;21.25;;;13.90;52.80;;;;;;5034975;28;20021;-68
2022/03/13 11:22:21;;;;;;;37.20;22.85;;;14.00;52.60;;;;;;5047276;28;20027;-81
2022/03/13 11:24:54;;;;;;;34.45;21.30;;;14.10;52.30;;;;;;5054089;28;20025;-78
2022/03/13 11:27:21;;;;;;;39.50;23.02;;;14.20;52.20;;;;;;5055726;28;20083;-73
2022/03/13 11:29:47;;;;;;;36.85;21.83;;;14.30;51.70;;;;;;5054962;28;20041;-71
2022/03/13 11:32:33;;;;;;;32.05;20.48;;;14.30;52.40;;;;;;5055263;28;20466;-73
2022/03/13 11:35:13;;;;;;;35.75;21.08;;;14.40;52.70;;;;;;5054015;28;20386;-71
2022/03/13 11:37:41;;;;;;;43.58;24.95;;;14.50;51.90;;;;;;5054715;28;20060;-71
2022/03/13 11:40:08;;;;;;;35.55;22.42;;;14.70;52.30;;;;;;5055001;28;20044;-72
2022/03/13 11:42:51;;;;;;;36.22;22.83;;;14.80;52.00;;;;;;5054376;28;20029;-71
2022/03/13 11:45:28;;;;;;;35.75;22.95;;;15.00;51.20;;;;;;5053769;28;20437;-73
2022/03/13 11:47:54;;;;;;;36.95;22.92;;;15.20;50.80;;;;;;5055212;28;20021;-69
2022/03/13 11:50:20;;;;;;;34.17;21.33;;;15.20;51.00;;;;;;5054965;28;20055;-70
2022/03/13 11:52:46;;;;;;;32.75;22.25;;;15.40;49.50;;;;;;5053928;28;20105;-72
2022/03/13 11:55:13;;;;;;;32.95;21.73;;;15.70;48.50;;;;;;5054891;28;20516;-70
2022/03/13 11:57:44;;;;;;;32.25;22.15;;;16.00;47.90;;;;;;5054064;28;20032;-70
2022/03/13 12:00:12;;;;;;;29.52;19.85;;;16.30;47.50;;;;;;5054984;28;20122;-69
2022/03/13 12:02:41;;;;;;;32.50;21.48;;;16.60;47.40;;;;;;5053882;28;20083;-68
2022/03/13 12:05:25;;;;;;;33.75;21.52;;;16.90;46.00;;;;;;5054909;28;20036;-69
2022/03/13 12:08:04;;;;;;;28.58;20.65;;;17.30;46.60;;;;;;5054465;28;20025;-67
2022/03/13 12:10:37;;;;;;;31.50;20.98;;;17.60;45.00;;;;;;5053953;28;20055;-67
2022/03/13 12:13:15;;;;;;;34.33;21.67;;;18.00;44.10;;;;;;5054469;28;20083;-68
2022/03/13 12:15:42;;;;;;;32.38;22.27;;;18.10;44.50;;;;;;5053810;28;20032;-70
2022/03/13 12:18:25;;;;;;;30.05;21.70;;;18.30;43.60;;;;;;5054950;28;20021;-69
2022/03/13 12:20:52;;;;;;;33.83;22.33;;;18.30;43.20;;;;;;5053748;28;20028;-68
2022/03/13 12:23:31;;;;;;;29.52;20.77;;;18.10;43.60;;;;;;5064802;28;20086;-68
2022/03/13 12:26:36;;;;;;;35.57;22.80;;;18.10;44.30;;;;;;5074375;28;20492;-67
2022/03/13 12:29:01;;;;;;;31.50;22.58;;;18.50;42.50;;;;;;5031219;28;20073;-68
2022/03/13 12:31:27;;;;;;;31.50;22.27;;;18.50;42.90;;;;;;5031625;28;20447;-68
2022/03/13 12:33:54;;;;;;;29.58;22.08;;;18.50;43.20;;;;;;5031454;28;20039;-68
2022/03/13 12:36:23;;;;;;;30.98;22.35;;;18.70;42.70;;;;;;5031808;28;20025;-68